createdAt,value
2022-08-08T00:02:30.052Z,22.20
2022-08-08T00:04:55.581Z,22.32
2022-08-08T00:07:33.759Z,22.06
2022-08-08T00:10:11.130Z,22.03
2022-08-08T00:12:48.421Z,22.13
2022-08-08T00:15:55.849Z,22.27
2022-08-08T00:18:24.094Z,22.40
2022-08-08T00:20:57.036Z,22.43
2022-08-08T00:23:43.000Z,22.44
2022-08-08T00:26:26.292Z,22.45
2022-08-08T00:29:03.920Z,22.33
2022-08-08T00:32:15.261Z,22.13
2022-08-08T00:35:04.608Z,21.74
2022-08-08T00:37:47.299Z,21.26
2022-08-08T00:41:12.143Z,20.94
2022-08-08T00:44:02.216Z,21.14
2022-08-08T00:47:19.663Z,21.34
2022-08-08T00:50:40.802Z,21.48
2022-08-08T00:53:20.781Z,21.64
2022-08-08T00:56:47.324Z,21.52
2022-08-08T01:00:05.041Z,21.52
2022-08-08T01:03:58.444Z,21.55
2022-08-08T01:06:27.513Z,21.54
2022-08-08T01:09:49.087Z,21.62
2022-08-08T01:13:23.013Z,21.63
2022-08-08T01:16:38.038Z,21.52
2022-08-08T01:20:02.204Z,21.56
2022-08-08T01:24:06.074Z,21.42
2022-08-08T01:26:27.420Z,21.30
2022-08-08T01:29:35.716Z,21.26
2022-08-08T01:33:03.148Z,21.27
2022-08-08T01:36:23.798Z,21.11
2022-08-08T01:39:27.697Z,21.06
2022-08-08T01:42:10.630Z,20.95
2022-08-08T01:44:55.979Z,21.02
2022-08-08T01:48:16.599Z,20.49
2022-08-08T01:50:59.052Z,20.59
2022-08-08T01:55:26.312Z,20.50
2022-08-08T01:56:47.053Z,20.14
2022-08-08T02:00:01.866Z,19.99
2022-08-08T02:03:55.179Z,20.22
2022-08-08T02:06:31.846Z,19.92
2022-08-08T02:09:18.246Z,19.80
2022-08-08T02:11:58.675Z,19.87
2022-08-08T02:14:50.070Z,19.90
2022-08-08T02:17:42.727Z,20.41
2022-08-08T02:21:02.418Z,20.64
2022-08-08T02:23:23.380Z,20.83
2022-08-08T02:26:10.052Z,20.82
2022-08-08T02:29:00.467Z,20.79
2022-08-08T02:32:00.720Z,20.74
2022-08-08T02:35:12.010Z,20.76
2022-08-08T02:38:29.184Z,20.76
2022-08-08T02:41:58.813Z,20.69
2022-08-08T02:45:21.445Z,20.59
2022-08-08T02:48:27.373Z,20.66
2022-08-08T02:51:55.136Z,20.63
2022-08-08T02:55:03.353Z,20.54
2022-08-08T02:58:04.856Z,20.41
2022-08-08T03:01:20.608Z,20.35
2022-08-08T03:05:03.952Z,20.32
2022-08-08T03:07:59.959Z,20.42
2022-08-08T03:12:01.498Z,20.45
2022-08-08T03:16:04.028Z,20.54
2022-08-08T03:17:52.032Z,20.81
2022-08-08T03:20:46.817Z,20.92
2022-08-08T03:23:24.482Z,20.94
2022-08-08T03:26:08.485Z,20.83
2022-08-08T03:28:42.398Z,20.76
2022-08-08T03:31:26.598Z,20.69
2022-08-08T03:34:00.365Z,20.64
2022-08-08T03:36:31.294Z,20.60
2022-08-08T03:39:14.361Z,20.54
2022-08-08T03:42:28.742Z,20.28
2022-08-08T03:44:38.700Z,20.01
2022-08-08T03:47:20.623Z,19.88
2022-08-08T03:50:00.919Z,19.82
2022-08-08T03:52:37.052Z,19.82
2022-08-08T03:55:56.344Z,19.95
2022-08-08T03:58:31.181Z,20.08
2022-08-08T04:01:23.649Z,20.25
2022-08-08T04:03:57.343Z,20.27
2022-08-08T04:06:29.668Z,20.34
2022-08-08T04:09:08.796Z,20.39
2022-08-08T04:11:57.742Z,20.41
2022-08-08T04:14:45.141Z,20.39
2022-08-08T04:17:22.578Z,20.41
2022-08-08T04:20:04.797Z,20.32
2022-08-08T04:22:34.284Z,20.29
2022-08-08T04:25:05.017Z,20.29
2022-08-08T04:28:02.570Z,20.15
2022-08-08T04:30:23.074Z,20.13
2022-08-08T04:32:54.155Z,20.17
2022-08-08T04:35:26.445Z,20.22
2022-08-08T04:37:57.938Z,20.26
2022-08-08T04:40:34.737Z,20.29
2022-08-08T04:43:05.544Z,20.29
2022-08-08T04:45:41.526Z,20.19
2022-08-08T04:48:11.625Z,20.08
2022-08-08T04:50:44.568Z,20.09
2022-08-08T04:54:27.428Z,20.14
2022-08-08T04:56:08.377Z,20.24
2022-08-08T04:58:39.014Z,20.27
2022-08-08T05:01:10.813Z,20.08
2022-08-08T05:04:09.956Z,19.95
2022-08-08T05:06:39.056Z,19.88
2022-08-08T05:09:08.847Z,19.87
2022-08-08T05:11:40.830Z,19.94
2022-08-08T05:14:14.949Z,19.74
2022-08-08T05:17:00.143Z,19.48
2022-08-08T05:20:11.232Z,19.56
2022-08-08T05:22:21.971Z,19.74
2022-08-08T05:24:52.067Z,19.93
2022-08-08T05:27:23.881Z,20.08
2022-08-08T05:29:56.514Z,20.20
2022-08-08T05:32:36.440Z,20.16
2022-08-08T05:35:09.490Z,20.16
2022-08-08T05:37:52.554Z,20.04
2022-08-08T05:40:30.427Z,20.00
2022-08-08T05:43:38.329Z,19.98
2022-08-08T05:46:03.604Z,19.98
2022-08-08T05:48:36.039Z,20.13
2022-08-08T05:51:14.417Z,20.17
2022-08-08T05:54:24.686Z,20.20
2022-08-08T05:56:42.373Z,20.25
2022-08-08T06:00:00.313Z,20.30
2022-08-08T06:02:34.270Z,20.47
2022-08-08T06:05:06.878Z,20.61
2022-08-08T06:08:01.988Z,20.68
2022-08-08T06:10:34.670Z,20.76
2022-08-08T06:13:04.455Z,20.79
2022-08-08T06:15:50.944Z,20.85
2022-08-08T06:18:30.229Z,20.92
2022-08-08T06:21:03.435Z,20.97
2022-08-08T06:23:52.409Z,20.99
2022-08-08T06:26:43.291Z,20.99
2022-08-08T06:29:48.824Z,20.98
2022-08-08T06:32:15.440Z,20.95
2022-08-08T06:35:11.855Z,21.06
2022-08-08T06:37:46.451Z,20.95
2022-08-08T06:40:21.269Z,20.98
2022-08-08T06:42:56.741Z,21.08
2022-08-08T06:45:34.076Z,21.18
2022-08-08T06:48:04.528Z,21.20
2022-08-08T06:50:39.508Z,21.24
2022-08-08T06:53:13.993Z,21.11
2022-08-08T06:56:00.497Z,20.84
2022-08-08T06:58:33.126Z,20.98
2022-08-08T07:02:11.675Z,21.02
2022-08-08T07:04:37.584Z,21.24
2022-08-08T07:06:54.624Z,21.39
2022-08-08T07:09:45.746Z,21.34
2022-08-08T07:12:24.257Z,21.49
2022-08-08T07:15:05.600Z,21.74
2022-08-08T07:17:56.584Z,21.90
2022-08-08T07:20:32.671Z,22.06
2022-08-08T07:23:08.547Z,22.16
2022-08-08T07:25:54.583Z,21.84
2022-08-08T07:28:31.370Z,22.01
2022-08-08T07:31:04.780Z,22.18
2022-08-08T07:33:38.036Z,22.26
2022-08-08T07:36:23.968Z,22.47
2022-08-08T07:38:54.597Z,22.61
2022-08-08T07:41:26.528Z,22.85
2022-08-08T07:43:59.379Z,22.76
2022-08-08T07:46:30.524Z,22.87
2022-08-08T07:49:05.507Z,22.95
2022-08-08T07:51:52.974Z,23.09
2022-08-08T07:54:33.276Z,23.14
2022-08-08T07:57:16.936Z,23.08
2022-08-08T07:59:57.365Z,23.34
2022-08-08T08:02:38.276Z,23.59
2022-08-08T08:05:19.850Z,23.70
2022-08-08T08:07:54.663Z,23.45
2022-08-08T08:10:33.151Z,23.42
2022-08-08T08:13:25.507Z,23.13
2022-08-08T08:16:17.021Z,23.43
2022-08-08T08:18:56.146Z,23.53
2022-08-08T08:21:35.407Z,23.69
2022-08-08T08:24:49.501Z,23.54
2022-08-08T08:27:22.390Z,23.58
2022-08-08T08:29:57.518Z,23.73
2022-08-08T08:32:32.064Z,23.96
2022-08-08T08:35:08.768Z,23.84
2022-08-08T08:37:59.287Z,23.98
2022-08-08T08:40:29.700Z,23.95
2022-08-08T08:43:02.875Z,23.79
2022-08-08T08:45:32.720Z,24.03
2022-08-08T08:48:04.332Z,24.08
2022-08-08T08:50:40.990Z,23.85
2022-08-08T08:53:28.136Z,23.87
2022-08-08T08:56:18.237Z,24.12
2022-08-08T08:58:56.035Z,24.28
2022-08-08T09:01:42.118Z,24.35
2022-08-08T09:04:31.076Z,24.45
2022-08-08T09:07:13.788Z,24.54
2022-08-08T09:09:55.161Z,24.65
2022-08-08T09:12:30.293Z,24.68
2022-08-08T09:15:01.832Z,24.82
2022-08-08T09:17:42.038Z,24.43
2022-08-08T09:21:57.969Z,24.37
2022-08-08T09:23:17.654Z,24.58
2022-08-08T09:26:00.790Z,24.77
2022-08-08T09:28:38.854Z,24.94
2022-08-08T09:31:42.149Z,24.92
2022-08-08T09:34:32.209Z,24.86
2022-08-08T09:37:57.269Z,24.84
2022-08-08T09:40:01.749Z,24.99
2022-08-08T09:42:44.302Z,25.22
2022-08-08T09:45:55.081Z,25.40
2022-08-08T09:48:21.903Z,25.39
2022-08-08T09:50:58.016Z,25.30
2022-08-08T09:53:56.413Z,25.22
2022-08-08T09:56:25.325Z,25.18
2022-08-08T09:59:07.830Z,25.10
2022-08-08T10:01:58.206Z,25.24
2022-08-08T10:04:41.555Z,25.07
2022-08-08T10:07:15.977Z,25.27
2022-08-08T10:10:00.015Z,25.48
2022-08-08T10:12:53.004Z,25.58
2022-08-08T10:15:24.314Z,25.64
2022-08-08T10:18:05.900Z,25.59
2022-08-08T10:20:57.783Z,25.71
2022-08-08T10:23:44.052Z,25.82
2022-08-08T10:26:29.946Z,25.92
2022-08-08T10:29:05.786Z,25.91
2022-08-08T10:31:53.205Z,25.95
2022-08-08T10:34:25.261Z,25.95
2022-08-08T10:36:59.724Z,26.09
2022-08-08T10:39:43.087Z,25.97
2022-08-08T10:42:19.428Z,26.02
2022-08-08T10:44:50.302Z,26.12
2022-08-08T10:47:20.760Z,26.08
2022-08-08T10:50:00.416Z,26.05
2022-08-08T10:52:34.196Z,26.11
2022-08-08T10:55:06.091Z,26.19
2022-08-08T10:57:50.355Z,26.36
2022-08-08T11:00:25.745Z,26.40
2022-08-08T11:02:54.246Z,26.31
2022-08-08T11:05:23.155Z,26.24
2022-08-08T11:08:38.004Z,26.22
2022-08-08T11:10:43.115Z,26.44
2022-08-08T11:13:28.757Z,26.53
2022-08-08T11:16:01.030Z,26.61
2022-08-08T11:18:37.600Z,26.80
2022-08-08T11:21:10.615Z,26.69
2022-08-08T11:24:01.668Z,26.43
2022-08-08T11:26:32.010Z,26.61
2022-08-08T11:29:02.703Z,26.80
2022-08-08T11:31:39.625Z,26.90
2022-08-08T11:34:25.682Z,26.90
2022-08-08T11:37:15.602Z,26.94
2022-08-08T11:39:57.558Z,26.93
2022-08-08T11:42:26.789Z,26.86
2022-08-08T11:44:56.265Z,27.04
2022-08-08T11:47:24.992Z,27.26
2022-08-08T11:50:10.528Z,27.17
2022-08-08T11:52:45.230Z,27.26
2022-08-08T11:55:18.843Z,27.46
2022-08-08T11:57:51.519Z,27.51
2022-08-08T12:00:21.475Z,27.42
2022-08-08T12:02:54.305Z,27.50
2022-08-08T12:05:33.698Z,27.61
2022-08-08T12:08:02.256Z,27.69
2022-08-08T12:10:36.441Z,27.71
2022-08-08T12:13:06.770Z,27.72
2022-08-08T12:15:42.280Z,27.76
2022-08-08T12:18:20.611Z,27.81
2022-08-08T12:20:49.783Z,27.94
2022-08-08T12:23:30.502Z,28.07
2022-08-08T12:26:17.317Z,28.14
2022-08-08T12:28:57.200Z,28.06
2022-08-08T12:31:39.403Z,28.18
2022-08-08T12:34:36.058Z,28.30
2022-08-08T12:37:08.143Z,28.31
2022-08-08T12:39:59.860Z,28.34
2022-08-08T12:42:27.466Z,28.36
2022-08-08T12:45:59.712Z,28.33
2022-08-08T12:48:10.057Z,28.43
2022-08-08T12:50:54.610Z,28.44
2022-08-08T12:53:35.234Z,28.53
2022-08-08T12:56:17.698Z,28.36
2022-08-08T12:58:54.601Z,28.40
2022-08-08T13:01:36.908Z,28.49
2022-08-08T13:04:19.402Z,28.64
2022-08-08T13:06:57.105Z,28.74
2022-08-08T13:10:00.778Z,28.81
2022-08-08T13:12:29.758Z,28.63
2022-08-08T13:15:03.533Z,28.84
2022-08-08T13:18:08.594Z,28.88
2022-08-08T13:20:23.739Z,29.07
2022-08-08T13:23:30.274Z,29.19
2022-08-08T13:25:58.774Z,29.29
2022-08-08T13:28:32.427Z,29.21
2022-08-08T13:31:03.887Z,29.14
2022-08-08T13:33:42.740Z,29.41
2022-08-08T13:36:12.064Z,29.58
2022-08-08T13:38:40.947Z,29.62
2022-08-08T13:41:16.085Z,29.70
2022-08-08T13:43:46.846Z,29.90
2022-08-08T13:46:28.331Z,29.99
2022-08-08T13:50:33.901Z,29.91
2022-08-08T13:52:00.855Z,30.09
2022-08-08T13:54:31.830Z,30.10
2022-08-08T13:57:12.523Z,30.10
2022-08-08T13:59:48.241Z,30.20
2022-08-08T14:02:21.186Z,30.12
2022-08-08T14:04:54.395Z,30.04
2022-08-08T14:07:25.977Z,30.18
2022-08-08T14:10:04.427Z,30.41
2022-08-08T14:12:39.686Z,30.47
2022-08-08T14:15:23.459Z,30.50
2022-08-08T14:18:36.111Z,30.26
2022-08-08T14:20:56.883Z,30.23
2022-08-08T14:24:03.857Z,30.18
2022-08-08T14:26:28.392Z,29.93
2022-08-08T14:28:58.191Z,30.02
2022-08-08T14:32:05.877Z,30.23
2022-08-08T14:34:19.374Z,30.43
2022-08-08T14:36:54.602Z,30.46
2022-08-08T14:39:25.049Z,30.32
2022-08-08T14:42:10.852Z,30.29
2022-08-08T14:44:39.415Z,30.23
2022-08-08T14:47:16.994Z,30.14
2022-08-08T14:50:06.309Z,30.25
2022-08-08T14:52:54.237Z,30.26
2022-08-08T14:55:41.732Z,30.41
2022-08-08T14:58:16.323Z,30.61
2022-08-08T15:00:49.884Z,30.58
2022-08-08T15:03:18.462Z,30.52
2022-08-08T15:05:53.957Z,30.47
2022-08-08T15:08:34.347Z,30.48
2022-08-08T15:11:04.725Z,30.55
2022-08-08T15:13:39.806Z,30.72
2022-08-08T15:16:12.029Z,30.73
2022-08-08T15:18:50.015Z,30.72
2022-08-08T15:21:21.160Z,30.69
2022-08-08T15:23:50.840Z,30.67
2022-08-08T15:26:20.202Z,30.80
2022-08-08T15:28:53.082Z,30.79
2022-08-08T15:31:57.667Z,30.34
2022-08-08T15:34:29.160Z,30.40
2022-08-08T15:36:59.308Z,30.73
2022-08-08T15:39:31.230Z,30.83
2022-08-08T15:41:59.670Z,30.47
2022-08-08T15:44:29.779Z,30.64
2022-08-08T15:46:59.571Z,30.86
2022-08-08T15:49:29.464Z,31.08
2022-08-08T15:52:05.796Z,31.21
2022-08-08T15:54:38.298Z,31.35
2022-08-08T15:57:09.290Z,31.56
2022-08-08T16:00:05.912Z,31.42
2022-08-08T16:02:30.329Z,31.29
2022-08-08T16:04:59.921Z,31.47
2022-08-08T16:07:50.910Z,31.58
2022-08-08T16:13:27.449Z,31.19
2022-08-08T16:13:30.799Z,31.18
2022-08-08T16:15:58.559Z,31.35
2022-08-08T16:18:35.106Z,31.36
2022-08-08T16:21:10.313Z,31.19
2022-08-08T16:23:55.778Z,31.18
2022-08-08T16:26:34.147Z,31.37
2022-08-08T16:29:06.988Z,31.29
2022-08-08T16:31:37.354Z,31.21
2022-08-08T16:34:06.732Z,30.84
2022-08-08T16:36:37.437Z,31.15
2022-08-08T16:39:16.926Z,31.36
2022-08-08T16:42:00.966Z,31.58
2022-08-08T16:44:34.248Z,31.93
2022-08-08T16:47:21.819Z,31.98
2022-08-08T16:50:01.456Z,32.01
2022-08-08T16:55:06.258Z,32.04
2022-08-08T16:55:52.854Z,31.67
2022-08-08T16:58:15.893Z,31.48
2022-08-08T17:00:48.641Z,31.50
2022-08-08T17:03:18.106Z,31.52
2022-08-08T17:05:54.190Z,31.32
2022-08-08T17:08:23.692Z,31.16
2022-08-08T17:10:58.796Z,31.31
2022-08-08T17:13:41.134Z,31.50
2022-08-08T17:16:22.085Z,31.36
2022-08-08T17:18:52.953Z,31.38
2022-08-08T17:21:21.527Z,31.39
2022-08-08T17:24:00.941Z,30.85
2022-08-08T17:26:31.899Z,31.32
2022-08-08T17:29:04.525Z,31.43
2022-08-08T17:31:44.517Z,31.62
2022-08-08T17:34:36.122Z,31.86
2022-08-08T17:37:06.722Z,31.35
2022-08-08T17:40:04.569Z,31.51
2022-08-08T17:42:26.901Z,31.43
2022-08-08T17:44:54.953Z,31.18
2022-08-08T17:47:28.218Z,31.30
2022-08-08T17:50:00.722Z,31.44
2022-08-08T17:52:30.892Z,31.39
2022-08-08T17:54:59.263Z,31.46
2022-08-08T17:57:28.822Z,31.24
2022-08-08T18:00:03.322Z,31.11
2022-08-08T18:02:32.244Z,31.13
2022-08-08T18:05:04.791Z,31.19
2022-08-08T18:08:03.284Z,31.14
2022-08-08T18:10:31.007Z,31.32
2022-08-08T18:13:04.062Z,31.20
2022-08-08T18:15:35.578Z,31.10
2022-08-08T18:18:09.139Z,30.98
2022-08-08T18:20:54.817Z,30.42
2022-08-08T18:23:27.479Z,30.18
2022-08-08T18:26:01.521Z,30.31
2022-08-08T18:28:34.862Z,30.42
2022-08-08T18:31:21.765Z,30.07
2022-08-08T18:34:25.292Z,30.02
2022-08-08T18:36:37.819Z,29.75
2022-08-08T18:39:07.232Z,29.54
2022-08-08T18:41:51.551Z,29.34
2022-08-08T18:44:28.831Z,29.02
2022-08-08T18:46:58.132Z,28.88
2022-08-08T18:49:32.324Z,28.74
2022-08-08T18:52:22.104Z,28.67
2022-08-08T18:54:59.288Z,28.53
2022-08-08T18:57:33.481Z,28.36
2022-08-08T19:00:15.750Z,28.24
2022-08-08T19:02:48.313Z,28.01
2022-08-08T19:05:31.737Z,28.00
2022-08-08T19:08:03.027Z,27.99
2022-08-08T19:10:32.275Z,27.96
2022-08-08T19:13:03.205Z,27.75
2022-08-08T19:15:34.171Z,27.72
2022-08-08T19:18:30.816Z,27.55
2022-08-08T19:20:52.138Z,27.53
2022-08-08T19:23:21.645Z,27.52
2022-08-08T19:26:26.975Z,27.57
2022-08-08T19:28:41.341Z,27.47
2022-08-08T19:31:13.148Z,27.42
2022-08-08T19:34:04.272Z,27.25
2022-08-08T19:36:34.853Z,27.14
2022-08-08T19:39:02.877Z,27.20
2022-08-08T19:41:33.577Z,27.26
2022-08-08T19:44:03.742Z,27.26
2022-08-08T19:46:34.008Z,27.16
2022-08-08T19:49:03.015Z,27.07
2022-08-08T19:51:34.581Z,27.01
2022-08-08T19:54:09.543Z,26.87
2022-08-08T19:56:39.864Z,26.82
2022-08-08T19:59:10.113Z,26.82
2022-08-08T20:02:01.422Z,26.73
2022-08-08T20:04:29.856Z,26.68
2022-08-08T20:06:57.967Z,26.58
2022-08-08T20:09:36.337Z,26.53
2022-08-08T20:12:14.019Z,26.46
2022-08-08T20:14:51.824Z,26.41
2022-08-08T20:17:26.821Z,26.31
2022-08-08T20:19:57.289Z,26.22
2022-08-08T20:22:30.535Z,26.14
2022-08-08T20:25:00.277Z,26.18
2022-08-08T20:27:32.863Z,26.12
2022-08-08T20:30:52.845Z,26.02
2022-08-08T20:33:02.397Z,26.01
2022-08-08T20:35:32.639Z,25.98
2022-08-08T20:38:18.897Z,25.93
2022-08-08T20:40:57.709Z,25.70
2022-08-08T20:43:43.490Z,25.58
2022-08-08T20:46:14.716Z,25.68
2022-08-08T20:48:44.184Z,25.76
2022-08-08T20:51:12.834Z,25.80
2022-08-08T20:53:58.822Z,25.86
2022-08-08T20:56:35.517Z,25.82
2022-08-08T20:59:06.439Z,25.75
2022-08-08T21:02:05.583Z,25.72
2022-08-08T21:04:27.445Z,25.59
2022-08-08T21:06:56.107Z,25.43
2022-08-08T21:09:24.210Z,25.47
2022-08-08T21:12:03.486Z,25.48
2022-08-08T21:14:34.703Z,25.34
2022-08-08T21:17:06.092Z,25.36
2022-08-08T21:19:45.164Z,25.41
2022-08-08T21:22:16.067Z,25.46
2022-08-08T21:24:52.642Z,25.37
2022-08-08T21:27:38.853Z,25.33
2022-08-08T21:30:18.791Z,25.29
2022-08-08T21:32:51.578Z,25.40
2022-08-08T21:36:16.716Z,25.43
2022-08-08T21:38:17.133Z,25.39
2022-08-08T21:40:55.101Z,25.39
2022-08-08T21:43:33.158Z,25.43
2022-08-08T21:48:05.362Z,25.38
2022-08-08T21:48:51.631Z,25.20
2022-08-08T21:54:23.379Z,25.03
2022-08-08T21:54:31.361Z,25.15
2022-08-08T21:57:00.837Z,24.94
2022-08-08T22:00:02.986Z,25.04
2022-08-08T22:02:19.605Z,25.01
2022-08-08T22:04:52.684Z,25.03
2022-08-08T22:07:26.006Z,25.06
2022-08-08T22:10:03.006Z,25.10
2022-08-08T22:12:38.836Z,25.10
2022-08-08T22:15:08.439Z,25.02
2022-08-08T22:17:41.555Z,24.98
2022-08-08T22:20:23.573Z,24.97
2022-08-08T22:22:53.752Z,24.86
2022-08-08T22:25:25.724Z,24.78
2022-08-08T22:28:03.590Z,24.75
2022-08-08T22:30:33.486Z,24.66
2022-08-08T22:33:01.980Z,24.61
2022-08-08T22:36:05.031Z,24.44
2022-08-08T22:38:20.728Z,23.67
2022-08-08T22:40:49.932Z,23.80
2022-08-08T22:43:18.870Z,24.02
2022-08-08T22:45:52.669Z,23.97
2022-08-08T22:48:21.673Z,23.88
2022-08-08T22:50:51.048Z,23.92
2022-08-08T22:54:34.177Z,24.00
2022-08-08T22:56:08.990Z,24.00
2022-08-08T22:58:38.065Z,24.06
2022-08-08T23:02:01.639Z,24.07
2022-08-08T23:03:56.612Z,23.96
2022-08-08T23:06:25.448Z,23.92
2022-08-08T23:09:00.115Z,23.92
2022-08-08T23:11:31.372Z,23.91
2022-08-08T23:14:17.975Z,23.90
2022-08-08T23:16:57.737Z,23.93
2022-08-08T23:19:27.927Z,23.91
2022-08-08T23:22:01.394Z,23.89
2022-08-08T23:24:36.761Z,23.97
2022-08-08T23:27:10.116Z,24.02
2022-08-08T23:29:40.558Z,23.95
2022-08-08T23:32:10.955Z,24.09
2022-08-08T23:34:39.849Z,24.21
2022-08-08T23:37:17.728Z,24.21
2022-08-08T23:39:55.374Z,24.07
2022-08-08T23:42:25.972Z,23.82
2022-08-08T23:44:55.718Z,23.70
2022-08-08T23:49:02.868Z,23.63
2022-08-08T23:50:30.021Z,23.42
2022-08-08T23:52:58.922Z,23.00
2022-08-08T23:55:33.299Z,22.90
2022-08-08T23:58:09.987Z,22.85
